Time;durP1;ratioP1;P1;durP2;ratioP2;P2;SDS_P1;SDS_P2;PMS_P1;PMS_P2;Temp;Humidity;BMP_temperature;BMP_pressure;BME280_temperature;BME280_humidity;BME280_pressure;Samples;Min_cycle;Max_cycle;Signal;HPM_P1;HPM_P2
2024/05/03 00:00:32;;;;;;;;;;;14.50;99.90;;;;;;5517770;25;20414;-68
2024/05/03 00:02:58;;;;;;;;;;;14.50;99.90;;;;;;5520094;26;19944;-68
2024/05/03 00:05:24;;;;;;;;;;;14.40;99.90;;;;;;5518796;26;19927;-67
2024/05/03 00:07:50;;;;;;;;;;;14.40;99.90;;;;;;5518477;26;19935;-67
2024/05/03 00:10:15;;;;;;;;;;;14.40;99.90;;;;;;5506219;25;19999;-68
2024/05/03 00:12:41;;;;;;;;;;;14.40;99.90;;;;;;5519252;26;19927;-67
2024/05/03 00:15:06;;;;;;;;;;;14.30;99.90;;;;;;5519881;26;19927;-67
2024/05/03 00:17:32;;;;;;;;;;;14.40;99.90;;;;;;5510007;26;19927;-68
2024/05/03 00:20:00;;;;;;;;;;;14.40;99.90;;;;;;5513997;25;20284;-68
2024/05/03 00:22:26;;;;;;;;;;;14.30;99.90;;;;;;5518954;26;19996;-69
2024/05/03 00:24:52;;;;;;;;;;;14.20;99.90;;;;;;5519004;26;20336;-69
2024/05/03 00:27:18;;;;;;;;;;;14.60;99.90;;;;;;5499844;25;19932;-67
2024/05/03 00:29:47;;;;;;;;;;;14.10;99.90;;;;;;5502150;26;19938;-69
2024/05/03 00:32:13;;;;;;;;;;;14.20;99.90;;;;;;5507084;26;19964;-67
2024/05/03 00:34:39;;;;;;;;;;;14.20;99.90;;;;;;5518478;26;19935;-67
2024/05/03 00:37:05;;;;;;;;;;;14.20;99.90;;;;;;5502178;25;19928;-68
2024/05/03 00:39:30;;;;;;;;;;;14.60;99.90;;;;;;5517702;26;19927;-69
2024/05/03 00:41:56;;;;;;;;;;;14.10;99.90;;;;;;5518009;25;20375;-67
2024/05/03 00:44:22;;;;;;;;;;;14.10;99.90;;;;;;5506035;26;19999;-67
2024/05/03 00:46:51;;;;;;;;;;;14.10;99.90;;;;;;5519073;26;20299;-69
2024/05/03 00:49:16;;;;;;;;;;;14.10;99.90;;;;;;5508105;26;20317;-70
2024/05/03 00:51:42;;;;;;;;;;;14.10;99.90;;;;;;5515356;25;19939;-67
2024/05/03 00:54:08;;;;;;;;;;;14.10;99.90;;;;;;5519342;26;19927;-68
2024/05/03 00:56:39;;;;;;;;;;;14.10;99.90;;;;;;5518164;26;19935;-67
2024/05/03 00:59:05;;;;;;;;;;;14.20;99.90;;;;;;5518262;25;19939;-69
2024/05/03 01:01:31;;;;;;;;;;;14.20;99.90;;;;;;5518254;26;19935;-70
2024/05/03 01:03:57;;;;;;;;;;;14.10;99.90;;;;;;5502572;25;19935;-68
2024/05/03 01:06:23;;;;;;;;;;;14.00;99.90;;;;;;5516774;25;19927;-68
2024/05/03 01:08:48;;;;;;;;;;;14.10;99.90;;;;;;5518838;26;20343;-68
2024/05/03 01:11:15;;;;;;;;;;;14.00;99.90;;;;;;5518399;26;19949;-68
2024/05/03 01:13:40;;;;;;;;;;;14.00;99.90;;;;;;5517367;26;19935;-68
2024/05/03 01:16:06;;;;;;;;;;;13.90;99.90;;;;;;5510038;25;19928;-68
2024/05/03 01:18:31;;;;;;;;;;;13.90;99.90;;;;;;5505008;26;19935;-68
2024/05/03 01:20:57;;;;;;;;;;;13.90;99.90;;;;;;5522463;26;19928;-69
2024/05/03 01:23:24;;;;;;;;;;;13.80;99.90;;;;;;5520668;25;19934;-70
2024/05/03 01:25:50;;;;;;;;;;;14.10;99.90;;;;;;5508098;25;19939;-68
2024/05/03 01:28:15;;;;;;;;;;;14.20;99.90;;;;;;5520862;25;19934;-69
2024/05/03 01:30:41;;;;;;;;;;;13.70;99.90;;;;;;5521597;26;19940;-68
2024/05/03 01:33:09;;;;;;;;;;;13.70;99.90;;;;;;5512407;25;19934;-67
2024/05/03 01:35:34;;;;;;;;;;;13.60;99.90;;;;;;5517964;25;19928;-69
2024/05/03 01:38:00;;;;;;;;;;;13.70;99.90;;;;;;5514494;26;20348;-69
2024/05/03 01:40:25;;;;;;;;;;;14.10;99.90;;;;;;5516013;26;19935;-69
2024/05/03 01:42:51;;;;;;;;;;;13.60;99.90;;;;;;5520932;25;19943;-68
2024/05/03 01:45:16;;;;;;;;;;;13.60;99.90;;;;;;5521800;26;20395;-69
2024/05/03 01:47:42;;;;;;;;;;;14.20;99.90;;;;;;5508339;26;19931;-68
2024/05/03 01:50:07;;;;;;;;;;;13.60;99.90;;;;;;5517814;25;20330;-69
2024/05/03 01:52:33;;;;;;;;;;;13.60;99.90;;;;;;5508757;26;19994;-68
2024/05/03 01:54:59;;;;;;;;;;;13.60;99.90;;;;;;5522200;26;20345;-68
2024/05/03 01:57:24;;;;;;;;;;;13.50;99.90;;;;;;5520718;26;19934;-68
2024/05/03 01:59:50;;;;;;;;;;;14.10;99.90;;;;;;5485502;26;19928;-69
2024/05/03 02:02:15;;;;;;;;;;;13.60;99.90;;;;;;5521695;26;19928;-68
2024/05/03 02:04:41;;;;;;;;;;;13.60;99.90;;;;;;5520571;26;19932;-68
2024/05/03 02:07:07;;;;;;;;;;;13.60;99.90;;;;;;5520287;25;19935;-68
2024/05/03 02:09:33;;;;;;;;;;;14.20;99.90;;;;;;5520225;26;20331;-68
2024/05/03 02:11:59;;;;;;;;;;;13.50;99.90;;;;;;5521100;26;19928;-68
2024/05/03 02:14:24;;;;;;;;;;;13.50;99.90;;;;;;5520645;26;20181;-68
2024/05/03 02:16:50;;;;;;;;;;;13.50;99.90;;;;;;5520202;25;19935;-68
2024/05/03 02:19:15;;;;;;;;;;;13.50;99.90;;;;;;5521343;26;19927;-68
2024/05/03 02:21:41;;;;;;;;;;;13.50;99.90;;;;;;5519799;25;20007;-68
2024/05/03 02:24:07;;;;;;;;;;;13.50;99.90;;;;;;5520872;26;19996;-68
2024/05/03 02:26:34;;;;;;;;;;;13.50;99.90;;;;;;5507890;26;20380;-68
2024/05/03 02:28:59;;;;;;;;;;;13.50;99.90;;;;;;5520430;25;19935;-69
2024/05/03 02:31:25;;;;;;;;;;;13.60;99.90;;;;;;5520099;26;20480;-68
2024/05/03 02:33:50;;;;;;;;;;;13.60;99.90;;;;;;5516126;26;19940;-68
2024/05/03 02:36:16;;;;;;;;;;;13.50;99.90;;;;;;5513513;26;20367;-68
2024/05/03 02:38:43;;;;;;;;;;;13.80;99.90;;;;;;5514382;25;19928;-68
2024/05/03 02:41:11;;;;;;;;;;;14.10;99.90;;;;;;5509066;26;19968;-68
2024/05/03 02:43:41;;;;;;;;;;;13.50;99.90;;;;;;5519061;25;19934;-68
2024/05/03 02:46:06;;;;;;;;;;;13.50;99.90;;;;;;5521277;26;19927;-68
2024/05/03 02:48:32;;;;;;;;;;;14.00;99.90;;;;;;5507454;26;20363;-68
2024/05/03 02:50:58;;;;;;;;;;;13.50;99.90;;;;;;5507968;25;19959;-68
2024/05/03 02:53:23;;;;;;;;;;;13.60;99.90;;;;;;5507912;26;19934;-68
2024/05/03 02:55:49;;;;;;;;;;;13.50;99.90;;;;;;5521213;26;20363;-68
2024/05/03 02:58:14;;;;;;;;;;;13.60;99.90;;;;;;5520487;26;19935;-68
2024/05/03 03:00:40;;;;;;;;;;;13.60;99.90;;;;;;5507217;25;22519;-67
2024/05/03 03:03:06;;;;;;;;;;;13.60;99.90;;;;;;5520763;26;19941;-67
2024/05/03 03:05:32;;;;;;;;;;;13.60;99.90;;;;;;5509322;26;19928;-67
2024/05/03 03:07:58;;;;;;;;;;;13.60;99.90;;;;;;5519501;25;19934;-68
2024/05/03 03:10:24;;;;;;;;;;;13.60;99.90;;;;;;5520078;26;19927;-68
2024/05/03 03:12:50;;;;;;;;;;;13.60;99.90;;;;;;5520110;26;20291;-68
2024/05/03 03:15:15;;;;;;;;;;;13.60;99.90;;;;;;5515641;25;19934;-68
2024/05/03 03:17:42;;;;;;;;;;;13.60;99.90;;;;;;5516168;26;20394;-68
2024/05/03 03:20:08;;;;;;;;;;;13.60;99.90;;;;;;5508160;26;19927;-67
2024/05/03 03:22:35;;;;;;;;;;;13.60;99.90;;;;;;5518186;26;19978;-68
2024/05/03 03:25:02;;;;;;;;;;;13.60;99.90;;;;;;5519765;25;19960;-68
2024/05/03 03:27:29;;;;;;;;;;;13.60;99.90;;;;;;5519260;26;19938;-67
2024/05/03 03:29:54;;;;;;;;;;;13.60;99.90;;;;;;5520476;26;19932;-68
2024/05/03 03:32:21;;;;;;;;;;;13.60;99.90;;;;;;5507233;25;19928;-68
2024/05/03 03:34:47;;;;;;;;;;;14.00;99.90;;;;;;5505076;26;20383;-67
2024/05/03 03:37:23;;;;;;;;;;;13.60;99.90;;;;;;5507376;26;19930;-68
2024/05/03 03:39:49;;;;;;;;;;;13.60;99.90;;;;;;5519563;26;20299;-68
2024/05/03 03:42:15;;;;;;;;;;;13.60;99.90;;;;;;5516871;25;20371;-68
2024/05/03 03:44:42;;;;;;;;;;;13.60;99.90;;;;;;5519934;26;20064;-68
2024/05/03 03:47:08;;;;;;;;;;;13.60;99.90;;;;;;5518401;26;20399;-70
2024/05/03 03:49:33;;;;;;;;;;;13.60;99.90;;;;;;5520213;26;20271;-68
2024/05/03 03:52:01;;;;;;;;;;;13.50;99.90;;;;;;5477351;26;19927;-68
2024/05/03 03:54:28;;;;;;;;;;;13.60;99.90;;;;;;5517781;26;19934;-68
2024/05/03 03:56:54;;;;;;;;;;;13.60;99.90;;;;;;5519934;26;19935;-69
2024/05/03 03:59:20;;;;;;;;;;;13.60;99.90;;;;;;5520382;26;19964;-68
2024/05/03 04:01:45;;;;;;;;;;;13.60;99.90;;;;;;5498062;25;19927;-68
2024/05/03 04:04:11;;;;;;;;;;;13.60;99.90;;;;;;5520056;26;19928;-68
2024/05/03 04:06:37;;;;;;;;;;;13.70;99.90;;;;;;5518731;26;19955;-68
2024/05/03 04:09:03;;;;;;;;;;;13.60;99.90;;;;;;5519050;25;19999;-68
2024/05/03 04:11:30;;;;;;;;;;;13.70;99.90;;;;;;5517220;26;20381;-68
2024/05/03 04:13:55;;;;;;;;;;;13.70;99.90;;;;;;5513009;26;19935;-68
2024/05/03 04:16:21;;;;;;;;;;;13.70;99.90;;;;;;5512778;26;19956;-68
2024/05/03 04:18:47;;;;;;;;;;;13.70;99.90;;;;;;5513732;25;19939;-68
2024/05/03 04:21:13;;;;;;;;;;;13.70;99.90;;;;;;5519527;26;19928;-69
2024/05/03 04:23:38;;;;;;;;;;;13.90;99.90;;;;;;5517087;26;19927;-69
2024/05/03 04:26:05;;;;;;;;;;;14.20;99.90;;;;;;5511900;26;19928;-69
2024/05/03 04:28:30;;;;;;;;;;;13.80;99.90;;;;;;5510276;25;19946;-69
2024/05/03 04:30:56;;;;;;;;;;;14.10;99.90;;;;;;5519498;26;19927;-69
2024/05/03 04:33:22;;;;;;;;;;;13.80;99.90;;;;;;5513854;25;20359;-68
2024/05/03 04:35:47;;;;;;;;;;;13.80;99.90;;;;;;5504100;26;19934;-67
2024/05/03 04:38:14;;;;;;;;;;;13.70;99.90;;;;;;5518980;26;19939;-69
2024/05/03 04:40:40;;;;;;;;;;;13.70;99.90;;;;;;5517779;26;19928;-68
2024/05/03 04:43:06;;;;;;;;;;;13.70;99.90;;;;;;5503351;25;20258;-68
2024/05/03 04:45:31;;;;;;;;;;;13.70;99.90;;;;;;5469025;26;20360;-69
2024/05/03 04:47:57;;;;;;;;;;;14.30;99.90;;;;;;5504797;26;19927;-68
2024/05/03 04:50:23;;;;;;;;;;;13.70;99.90;;;;;;5515309;25;20272;-70
2024/05/03 04:52:48;;;;;;;;;;;13.80;99.90;;;;;;5513936;25;19934;-68
2024/05/03 04:55:14;;;;;;;;;;;13.80;99.90;;;;;;5515806;26;20367;-68
2024/05/03 04:57:39;;;;;;;;;;;13.80;99.90;;;;;;5518028;26;19928;-68
2024/05/03 05:00:05;;;;;;;;;;;13.80;99.90;;;;;;5518229;25;20441;-68
2024/05/03 05:02:31;;;;;;;;;;;13.70;99.90;;;;;;5516991;25;19939;-69
2024/05/03 05:04:57;;;;;;;;;;;13.70;99.90;;;;;;5522170;26;19934;-69
2024/05/03 05:07:24;;;;;;;;;;;13.70;99.90;;;;;;5509836;26;19996;-69
2024/05/03 05:09:51;;;;;;;;;;;13.70;99.90;;;;;;5517771;26;19927;-68
2024/05/03 05:12:16;;;;;;;;;;;13.70;99.90;;;;;;5519528;25;19960;-68
2024/05/03 05:14:42;;;;;;;;;;;13.70;99.90;;;;;;5515298;26;19927;-68
2024/05/03 05:17:08;;;;;;;;;;;13.70;99.90;;;;;;5521853;26;20372;-69
2024/05/03 05:19:33;;;;;;;;;;;13.70;99.90;;;;;;5518974;26;19931;-68
2024/05/03 05:22:08;;;;;;;;;;;13.70;99.90;;;;;;5515202;25;19928;-69
2024/05/03 05:24:37;;;;;;;;;;;13.70;99.90;;;;;;5516857;26;19960;-69
2024/05/03 05:27:04;;;;;;;;;;;13.80;99.90;;;;;;5508552;26;20196;-69
2024/05/03 05:29:30;;;;;;;;;;;13.80;99.90;;;;;;5520058;25;19938;-69
2024/05/03 05:31:57;;;;;;;;;;;13.80;99.90;;;;;;5509347;26;19936;-68
2024/05/03 05:34:22;;;;;;;;;;;13.90;99.90;;;;;;5521748;26;20274;-69
2024/05/03 05:36:48;;;;;;;;;;;13.90;99.90;;;;;;5520728;26;19931;-68
2024/05/03 05:39:13;;;;;;;;;;;14.00;99.90;;;;;;5515592;25;19935;-68
2024/05/03 05:41:39;;;;;;;;;;;14.00;99.90;;;;;;5520984;26;19959;-70
2024/05/03 05:44:04;;;;;;;;;;;14.10;99.90;;;;;;5513839;25;20442;-69
2024/05/03 05:46:30;;;;;;;;;;;14.00;99.90;;;;;;5516444;26;19934;-68
2024/05/03 05:48:56;;;;;;;;;;;14.10;99.90;;;;;;5521525;26;19941;-68
2024/05/03 05:51:21;;;;;;;;;;;14.10;99.90;;;;;;5489445;26;20422;-69
2024/05/03 05:53:52;;;;;;;;;;;14.10;99.90;;;;;;5509603;25;19934;-68
2024/05/03 05:56:17;;;;;;;;;;;14.10;99.90;;;;;;5522256;26;20349;-69
2024/05/03 05:58:43;;;;;;;;;;;14.00;99.90;;;;;;5508914;26;20024;-68
2024/05/03 06:01:08;;;;;;;;;;;14.00;99.90;;;;;;5510332;26;20280;-69
2024/05/03 06:03:34;;;;;;;;;;;14.00;99.90;;;;;;5515009;25;19996;-68
2024/05/03 06:06:00;;;;;;;;;;;14.00;99.90;;;;;;5499488;26;19939;-69
2024/05/03 06:08:25;;;;;;;;;;;14.10;99.90;;;;;;5505847;26;19928;-68
2024/05/03 06:10:51;;;;;;;;;;;14.00;99.90;;;;;;5516208;25;19939;-68
2024/05/03 06:13:17;;;;;;;;;;;14.10;99.90;;;;;;5521620;26;19947;-68
2024/05/03 06:15:42;;;;;;;;;;;14.10;99.90;;;;;;5496639;26;19939;-69
2024/05/03 06:18:08;;;;;;;;;;;14.40;99.90;;;;;;5516941;25;20364;-69
2024/05/03 06:20:33;;;;;;;;;;;14.00;99.90;;;;;;5510626;26;20050;-68
2024/05/03 06:22:59;;;;;;;;;;;14.10;99.90;;;;;;5517904;26;19928;-68
2024/05/03 06:25:24;;;;;;;;;;;14.10;99.90;;;;;;5513874;26;19939;-69
2024/05/03 06:27:53;;;;;;;;;;;14.10;99.90;;;;;;5493684;25;19939;-68
2024/05/03 06:30:19;;;;;;;;;;;14.50;99.90;;;;;;5509629;26;20023;-68
2024/05/03 06:32:44;;;;;;;;;;;14.30;99.90;;;;;;5507555;26;20496;-69
2024/05/03 06:35:10;;;;;;;;;;;14.30;99.90;;;;;;5514786;26;20018;-68
2024/05/03 06:37:36;;;;;;;;;;;14.30;99.90;;;;;;5516908;25;20255;-68
2024/05/03 06:40:03;;;;;;;;;;;14.30;99.90;;;;;;5520764;26;19927;-69
2024/05/03 06:42:29;;;;;;;;;;;14.20;99.90;;;;;;5506959;25;19928;-68
2024/05/03 06:44:54;;;;;;;;;;;14.20;99.90;;;;;;5516371;26;19975;-68
2024/05/03 06:47:20;;;;;;;;;;;14.30;99.90;;;;;;5513535;26;19935;-68
2024/05/03 06:49:46;;;;;;;;;;;14.40;99.90;;;;;;5520295;26;19927;-68
2024/05/03 06:52:11;;;;;;;;;;;14.50;99.90;;;;;;5519926;25;19928;-69
2024/05/03 06:54:37;;;;;;;;;;;14.50;99.90;;;;;;5520226;26;20379;-69
2024/05/03 06:57:03;;;;;;;;;;;14.50;99.90;;;;;;5509100;26;19971;-68
2024/05/03 06:59:28;;;;;;;;;;;14.50;99.90;;;;;;5508330;26;20420;-68
2024/05/03 07:01:54;;;;;;;;;;;14.50;99.90;;;;;;5519422;25;20016;-68
2024/05/03 07:04:21;;;;;;;;;;;14.60;99.90;;;;;;5515896;26;20268;-68
2024/05/03 07:06:46;;;;;;;;;;;14.60;99.90;;;;;;5498407;26;20367;-68
2024/05/03 07:09:12;;;;;;;;;;;14.60;99.90;;;;;;5520682;26;19936;-67
2024/05/03 07:11:38;;;;;;;;;;;14.60;99.90;;;;;;5518132;25;19934;-69
2024/05/03 07:14:04;;;;;;;;;;;14.60;99.90;;;;;;5516793;26;19995;-68
2024/05/03 07:16:29;;;;;;;;;;;14.70;99.90;;;;;;5519677;26;20363;-68
2024/05/03 07:18:55;;;;;;;;;;;14.80;99.90;;;;;;5512950;25;19939;-68
2024/05/03 07:21:20;;;;;;;;;;;14.80;99.90;;;;;;5508654;26;19935;-69
2024/05/03 07:23:48;;;;;;;;;;;14.90;99.90;;;;;;5519727;26;20389;-69
2024/05/03 07:26:13;;;;;;;;;;;14.90;99.90;;;;;;5515196;26;19940;-68
2024/05/03 07:28:40;;;;;;;;;;;14.80;99.90;;;;;;5496472;25;19935;-68
2024/05/03 07:31:06;;;;;;;;;;;14.70;99.90;;;;;;5520363;26;19999;-68
2024/05/03 07:33:32;;;;;;;;;;;14.60;99.90;;;;;;5519280;26;20383;-68
2024/05/03 07:35:59;;;;;;;;;;;14.50;99.90;;;;;;5519506;25;19978;-67
2024/05/03 07:38:25;;;;;;;;;;;14.50;99.90;;;;;;5520048;26;19959;-68
2024/05/03 07:40:50;;;;;;;;;;;14.40;99.90;;;;;;5519713;26;19928;-68
2024/05/03 07:43:16;;;;;;;;;;;14.40;99.90;;;;;;5511528;25;19963;-68
2024/05/03 07:45:42;;;;;;;;;;;14.40;99.90;;;;;;5519262;26;20023;-67
2024/05/03 07:48:08;;;;;;;;;;;14.40;99.90;;;;;;5520088;26;19931;-68
2024/05/03 07:50:33;;;;;;;;;;;14.50;99.90;;;;;;5518698;25;20158;-68
2024/05/03 07:53:00;;;;;;;;;;;14.60;99.90;;;;;;5520283;26;20260;-69
2024/05/03 07:55:25;;;;;;;;;;;14.60;99.90;;;;;;5519144;26;20311;-68
2024/05/03 07:57:51;;;;;;;;;;;14.60;99.90;;;;;;5519662;26;19934;-68
2024/05/03 08:00:17;;;;;;;;;;;14.60;99.90;;;;;;5506987;25;19938;-68
2024/05/03 08:02:42;;;;;;;;;;;14.60;99.90;;;;;;5517302;26;19999;-68
2024/05/03 08:05:08;;;;;;;;;;;14.60;99.90;;;;;;5508026;26;20379;-68
2024/05/03 08:07:33;;;;;;;;;;;14.60;99.90;;;;;;5515353;25;19932;-69
2024/05/03 08:09:59;;;;;;;;;;;14.50;99.90;;;;;;5519796;26;19942;-68
2024/05/03 08:12:25;;;;;;;;;;;14.50;99.90;;;;;;5519549;26;20274;-68
2024/05/03 08:14:51;;;;;;;;;;;14.50;99.90;;;;;;5507488;26;19933;-68
2024/05/03 08:17:16;;;;;;;;;;;14.40;99.90;;;;;;5517197;25;19938;-67
2024/05/03 08:19:44;;;;;;;;;;;14.40;99.90;;;;;;5516776;26;19928;-68
2024/05/03 08:22:11;;;;;;;;;;;14.40;99.90;;;;;;5507879;26;19927;-68
2024/05/03 08:24:37;;;;;;;;;;;14.40;99.90;;;;;;5518796;26;19927;-69
2024/05/03 08:27:02;;;;;;;;;;;14.50;99.90;;;;;;5515279;25;19927;-69
2024/05/03 08:29:29;;;;;;;;;;;14.60;99.90;;;;;;5517628;26;19940;-68
2024/05/03 08:31:54;;;;;;;;;;;14.70;99.90;;;;;;5519283;26;19996;-68
2024/05/03 08:34:20;;;;;;;;;;;14.60;99.90;;;;;;5518927;26;19928;-68
2024/05/03 08:36:46;;;;;;;;;;;14.70;99.90;;;;;;5517631;25;19935;-68
2024/05/03 08:39:11;;;;;;;;;;;14.70;99.90;;;;;;5471251;26;19935;-69
2024/05/03 08:41:55;;;;;;;;;;;14.70;99.90;;;;;;5518609;25;19975;-69
2024/05/03 08:44:33;;;;;;;;;;;14.60;99.90;;;;;;5511547;26;19935;-68
2024/05/03 08:47:05;;;;;;;;;;;14.60;99.90;;;;;;5518898;26;20623;-69
2024/05/03 08:49:33;;;;;;;;;;;14.50;99.90;;;;;;5517356;25;19983;-69
2024/05/03 08:51:59;;;;;;;;;;;14.40;99.90;;;;;;5500583;26;20379;-68
2024/05/03 08:54:25;;;;;;;;;;;14.50;99.90;;;;;;5511055;25;19963;-68
2024/05/03 08:56:51;;;;;;;;;;;14.50;99.90;;;;;;5514077;26;19963;-69
2024/05/03 08:59:16;;;;;;;;;;;14.40;99.90;;;;;;5518775;26;20372;-68
2024/05/03 09:01:42;;;;;;;;;;;14.40;99.90;;;;;;5506385;26;19934;-69
2024/05/03 09:04:08;;;;;;;;;;;14.40;99.90;;;;;;5517515;25;19931;-68
2024/05/03 09:06:35;;;;;;;;;;;14.30;99.90;;;;;;5509049;26;20415;-70
2024/05/03 09:09:01;;;;;;;;;;;14.30;99.90;;;;;;5518608;26;20290;-68
2024/05/03 09:11:27;;;;;;;;;;;14.30;99.90;;;;;;5518415;26;20008;-70
2024/05/03 09:13:54;;;;;;;;;;;14.20;99.90;;;;;;5512832;25;19932;-69
2024/05/03 09:16:25;;;;;;;;;;;14.20;99.90;;;;;;5510992;26;20370;-69
2024/05/03 09:18:51;;;;;;;;;;;14.20;99.90;;;;;;5512994;26;19942;-69
2024/05/03 09:21:17;;;;;;;;;;;14.20;99.90;;;;;;5509267;25;19991;-68
2024/05/03 09:23:46;;;;;;;;;;;14.20;99.90;;;;;;5517665;26;20290;-69
2024/05/03 09:26:12;;;;;;;;;;;14.20;99.90;;;;;;5511167;26;19992;-69
2024/05/03 09:28:38;;;;;;;;;;;14.20;99.90;;;;;;5514734;26;19935;-69
2024/05/03 09:31:05;;;;;;;;;;;14.20;99.90;;;;;;5514433;25;19927;-68
2024/05/03 09:33:30;;;;;;;;;;;14.20;99.90;;;;;;5517253;26;19935;-70
2024/05/03 09:35:56;;;;;;;;;;;14.20;99.90;;;;;;5518273;26;19927;-69
2024/05/03 09:38:22;;;;;;;;;;;14.10;99.90;;;;;;5505721;25;19959;-68
2024/05/03 09:40:48;;;;;;;;;;;14.10;99.90;;;;;;5518826;26;19945;-69
2024/05/03 09:43:15;;;;;;;;;;;14.00;99.90;;;;;;5520873;25;19992;-69
2024/05/03 09:45:42;;;;;;;;;;;14.10;99.90;;;;;;5509810;26;20387;-69
2024/05/03 09:48:09;;;;;;;;;;;14.00;99.90;;;;;;5513349;26;19931;-69
2024/05/03 09:50:42;;;;;;;;;;;14.00;99.90;;;;;;5520834;26;19935;-69
2024/05/03 09:53:12;;;;;;;;;;;13.80;99.90;;;;;;5511711;26;19933;-69
2024/05/03 09:55:43;;;;;;;;;;;13.80;99.90;;;;;;5517341;26;20455;-69
2024/05/03 09:58:12;;;;;;;;;;;13.90;99.90;;;;;;5517426;25;19940;-69
2024/05/03 10:00:41;;;;;;;;;;;13.90;99.90;;;;;;5516006;25;19934;-70
2024/05/03 10:03:16;;;;;;;;;;;13.80;99.90;;;;;;5515517;26;19927;-70
2024/05/03 10:05:42;;;;;;;;;;;13.80;99.90;;;;;;5520283;26;19995;-70
2024/05/03 10:08:08;;;;;;;;;;;13.80;99.90;;;;;;5521475;26;20378;-68
2024/05/03 10:10:34;;;;;;;;;;;13.70;99.90;;;;;;5516205;25;19972;-68
2024/05/03 10:13:00;;;;;;;;;;;13.80;99.90;;;;;;5521759;26;19935;-69
2024/05/03 10:15:27;;;;;;;;;;;13.80;99.90;;;;;;5521208;26;19927;-69
2024/05/03 10:17:53;;;;;;;;;;;14.30;99.90;;;;;;5518876;25;19940;-69
2024/05/03 10:20:31;;;;;;;;;;;13.70;99.90;;;;;;5518514;26;19943;-69
2024/05/03 10:23:01;;;;;;;;;;;13.70;99.90;;;;;;5518630;26;20299;-69
2024/05/03 10:25:27;;;;;;;;;;;13.70;99.90;;;;;;5521317;26;20275;-69
2024/05/03 10:27:54;;;;;;;;;;;13.80;99.90;;;;;;5518717;25;20045;-69
2024/05/03 10:30:20;;;;;;;;;;;13.70;99.90;;;;;;5521258;26;19928;-68
2024/05/03 10:32:46;;;;;;;;;;;13.70;99.90;;;;;;5514741;26;19977;-68
2024/05/03 10:35:20;;;;;;;;;;;13.80;99.90;;;;;;5520090;25;19947;-69
2024/05/03 10:37:46;;;;;;;;;;;13.70;99.90;;;;;;5515962;25;20375;-68
2024/05/03 10:40:13;;;;;;;;;;;13.80;99.90;;;;;;5520463;26;19935;-69
2024/05/03 10:42:39;;;;;;;;;;;14.20;99.90;;;;;;5519552;25;19995;-69
2024/05/03 10:45:04;;;;;;;;;;;14.20;99.90;;;;;;5520601;26;19927;-68
2024/05/03 10:47:30;;;;;;;;;;;13.80;99.90;;;;;;5510615;26;19935;-69
2024/05/03 10:49:56;;;;;;;;;;;13.80;99.90;;;;;;5515486;26;20015;-69
2024/05/03 10:52:21;;;;;;;;;;;13.80;99.90;;;;;;5511634;25;19927;-69
2024/05/03 10:54:48;;;;;;;;;;;13.80;99.90;;;;;;5519160;26;19938;-69
2024/05/03 10:57:14;;;;;;;;;;;13.90;99.90;;;;;;5520732;26;19991;-69
2024/05/03 10:59:49;;;;;;;;;;;13.90;99.90;;;;;;5508331;26;19935;-70
2024/05/03 11:02:16;;;;;;;;;;;13.70;99.90;;;;;;5512462;26;20297;-69
2024/05/03 11:04:42;;;;;;;;;;;13.70;99.90;;;;;;5519908;26;19927;-69
2024/05/03 11:07:07;;;;;;;;;;;13.60;99.90;;;;;;5507412;26;19928;-69
2024/05/03 11:09:33;;;;;;;;;;;13.60;99.90;;;;;;5517016;25;19934;-69
2024/05/03 11:11:59;;;;;;;;;;;14.00;99.90;;;;;;5520207;26;19939;-69
2024/05/03 11:14:26;;;;;;;;;;;13.50;99.90;;;;;;5520270;26;20391;-70
2024/05/03 11:16:52;;;;;;;;;;;13.50;99.90;;;;;;5519278;26;19933;-69
2024/05/03 11:19:17;;;;;;;;;;;13.80;99.90;;;;;;5519295;25;19928;-69
2024/05/03 11:21:47;;;;;;;;;;;13.60;99.90;;;;;;5519798;26;19934;-69
2024/05/03 11:24:22;;;;;;;;;;;13.60;99.90;;;;;;5520177;26;19998;-69
2024/05/03 11:26:47;;;;;;;;;;;13.60;99.90;;;;;;5518486;25;20009;-70
2024/05/03 11:29:13;;;;;;;;;;;13.50;99.90;;;;;;5520549;26;19927;-69
2024/05/03 11:31:39;;;;;;;;;;;13.60;99.90;;;;;;5508083;26;19955;-70
2024/05/03 11:34:07;;;;;;;;;;;13.70;99.90;;;;;;5487422;26;19928;-69
2024/05/03 11:36:33;;;;;;;;;;;14.10;99.90;;;;;;5518378;25;19934;-68
2024/05/03 11:39:03;;;;;;;;;;;13.90;99.90;;;;;;5513370;26;19927;-69
2024/05/03 11:41:28;;;;;;;;;;;13.60;99.90;;;;;;5519925;26;19935;-70
2024/05/03 11:43:56;;;;;;;;;;;13.60;99.90;;;;;;5514215;25;20359;-68
2024/05/03 11:46:22;;;;;;;;;;;13.50;99.90;;;;;;5519686;26;19928;-69
2024/05/03 11:48:48;;;;;;;;;;;13.60;99.90;;;;;;5518921;26;19935;-70
2024/05/03 11:51:13;;;;;;;;;;;13.50;99.90;;;;;;5487010;26;19934;-69
2024/05/03 11:53:39;;;;;;;;;;;13.50;99.90;;;;;;5513701;25;19958;-68
2024/05/03 11:56:04;;;;;;;;;;;13.80;99.90;;;;;;5519789;26;19996;-69
2024/05/03 11:58:30;;;;;;;;;;;13.50;99.90;;;;;;5510547;26;20275;-69
2024/05/03 12:00:58;;;;;;;;;;;13.50;99.90;;;;;;5511798;25;19977;-68
2024/05/03 12:03:24;;;;;;;;;;;13.40;99.90;;;;;;5518958;26;19934;-68
2024/05/03 12:05:50;;;;;;;;;;;13.60;99.90;;;;;;5514260;26;20443;-68
2024/05/03 12:08:16;;;;;;;;;;;13.40;99.90;;;;;;5514459;25;20548;-69
2024/05/03 12:10:41;;;;;;;;;;;13.40;99.90;;;;;;5518181;26;19928;-69
2024/05/03 12:13:07;;;;;;;;;;;13.50;99.90;;;;;;5510942;26;20452;-68
2024/05/03 12:15:32;;;;;;;;;;;13.60;99.90;;;;;;5518739;26;19928;-68
2024/05/03 12:17:58;;;;;;;;;;;14.00;99.90;;;;;;5512691;25;20267;-68
2024/05/03 12:20:24;;;;;;;;;;;13.80;99.90;;;;;;5516857;26;19978;-68
2024/05/03 12:22:49;;;;;;;;;;;13.80;99.90;;;;;;5518955;26;19998;-69
2024/05/03 12:25:15;;;;;;;;;;;13.80;99.90;;;;;;5512982;25;19935;-69
2024/05/03 12:27:40;;;;;;;;;;;13.70;99.90;;;;;;5518526;26;19927;-68
2024/05/03 12:30:06;;;;;;;;;;;13.70;99.90;;;;;;5515352;26;19928;-68
2024/05/03 12:32:32;;;;;;;;;;;13.50;99.90;;;;;;5518823;26;19928;-68
2024/05/03 12:34:58;;;;;;;;;;;13.50;99.90;;;;;;5517094;25;19932;-68
2024/05/03 12:37:24;;;;;;;;;;;13.40;99.90;;;;;;5518590;26;19934;-68
2024/05/03 12:39:50;;;;;;;;;;;13.30;99.90;;;;;;5511901;26;20268;-68
2024/05/03 12:42:15;;;;;;;;;;;13.30;99.90;;;;;;5517945;25;19928;-69
2024/05/03 12:44:41;;;;;;;;;;;13.30;99.90;;;;;;5506746;26;20323;-69
2024/05/03 12:47:07;;;;;;;;;;;13.20;99.90;;;;;;5518708;26;20378;-68
2024/05/03 12:49:32;;;;;;;;;;;13.10;99.90;;;;;;5514577;26;19996;-69
2024/05/03 12:51:58;;;;;;;;;;;13.00;99.90;;;;;;5508933;25;20442;-69
2024/05/03 12:54:23;;;;;;;;;;;13.10;99.90;;;;;;5510922;26;20375;-69
2024/05/03 12:56:49;;;;;;;;;;;13.00;99.90;;;;;;5513083;26;20452;-69
2024/05/03 12:59:14;;;;;;;;;;;13.60;99.90;;;;;;5515151;26;19973;-68
2024/05/03 13:01:40;;;;;;;;;;;13.00;99.90;;;;;;5516898;25;19927;-69
2024/05/03 13:04:05;;;;;;;;;;;12.90;99.90;;;;;;5513210;26;19960;-69
2024/05/03 13:06:33;;;;;;;;;;;12.90;99.90;;;;;;5505287;26;19938;-69
2024/05/03 13:08:58;;;;;;;;;;;12.90;99.90;;;;;;5517679;25;19935;-69
2024/05/03 13:14:08;;;;;;;;;;;12.90;99.90;;;;;;5506995;26;19927;-69
2024/05/03 13:16:33;;;;;;;;;;;12.80;99.90;;;;;;5521520;26;19996;-69
2024/05/03 13:18:59;;;;;;;;;;;13.10;99.90;;;;;;5521002;25;20316;-69
2024/05/03 13:21:26;;;;;;;;;;;12.60;99.90;;;;;;5518441;26;19934;-69
2024/05/03 13:23:52;;;;;;;;;;;12.70;99.90;;;;;;5521208;26;19935;-68
2024/05/03 13:26:17;;;;;;;;;;;12.70;99.90;;;;;;5520841;25;20017;-69
2024/05/03 13:28:43;;;;;;;;;;;12.70;99.90;;;;;;5520406;25;20271;-69
2024/05/03 13:31:09;;;;;;;;;;;12.70;99.90;;;;;;5516944;26;20349;-69
2024/05/03 13:33:34;;;;;;;;;;;12.70;99.90;;;;;;5520037;26;20332;-68
2024/05/03 13:36:01;;;;;;;;;;;12.70;99.90;;;;;;5521818;26;19939;-70
2024/05/03 13:38:26;;;;;;;;;;;12.70;99.90;;;;;;5515911;25;20007;-68
2024/05/03 13:40:52;;;;;;;;;;;12.70;99.90;;;;;;5509083;26;20371;-69
2024/05/03 13:43:18;;;;;;;;;;;13.10;99.90;;;;;;5519904;25;19927;-69
2024/05/03 13:45:43;;;;;;;;;;;12.90;99.90;;;;;;5511432;26;19935;-68
2024/05/03 13:48:09;;;;;;;;;;;12.70;99.90;;;;;;5514970;26;19956;-68
2024/05/03 13:50:36;;;;;;;;;;;12.80;99.90;;;;;;5514036;26;19938;-69
2024/05/03 13:53:02;;;;;;;;;;;12.80;99.90;;;;;;5517944;25;20279;-69
2024/05/03 13:55:27;;;;;;;;;;;12.80;99.90;;;;;;5512465;26;19980;-69
2024/05/03 13:57:53;;;;;;;;;;;12.80;99.90;;;;;;5511809;26;19999;-68
2024/05/03 14:00:18;;;;;;;;;;;12.90;99.90;;;;;;5516357;26;19935;-68
2024/05/03 14:02:44;;;;;;;;;;;12.90;99.90;;;;;;5512611;25;19991;-68
2024/05/03 14:05:09;;;;;;;;;;;13.00;99.90;;;;;;5518927;26;19975;-69
2024/05/03 14:07:35;;;;;;;;;;;13.00;99.90;;;;;;5513646;26;19928;-68
2024/05/03 14:10:02;;;;;;;;;;;12.90;99.90;;;;;;5512366;26;19928;-68
2024/05/03 14:12:27;;;;;;;;;;;13.00;99.90;;;;;;5507960;25;19996;-68